Time;durP1;ratioP1;P1;durP2;ratioP2;P2;SDS_P1;SDS_P2;PMS_P1;PMS_P2;Temp;Humidity;BMP_temperature;BMP_pressure;BME280_temperature;BME280_humidity;BME280_pressure;Samples;Min_cycle;Max_cycle;Signal;HPM_P1;HPM_P2
2022/04/06 00:05:58;;;;;;;3.10;0.80;;;9.80;72.70;;;;;;20796432;28;20065;-78
2022/04/06 00:15:59;;;;;;;1.30;0.70;;;9.80;72.00;;;;;;20778993;28;20041;-78
2022/04/06 00:26:00;;;;;;;1.15;0.85;;;9.80;72.00;;;;;;20794589;28;20049;-78
2022/04/06 00:36:00;;;;;;;2.53;1.17;;;9.90;72.10;;;;;;20793455;28;20164;-78
2022/04/06 00:46:01;;;;;;;2.63;1.83;;;9.80;72.10;;;;;;20794802;28;20124;-78
2022/04/06 00:56:02;;;;;;;1.92;1.27;;;9.90;72.30;;;;;;20824873;28;20033;-78
2022/04/06 01:06:02;;;;;;;1.65;1.15;;;9.90;72.40;;;;;;20791912;28;20103;-78
2022/04/06 01:16:03;;;;;;;2.08;1.30;;;9.90;72.50;;;;;;20791730;28;20041;-78
2022/04/06 01:26:04;;;;;;;3.10;1.50;;;9.90;72.60;;;;;;20790861;28;20045;-79
2022/04/06 01:36:04;;;;;;;2.50;1.48;;;9.90;72.70;;;;;;20822728;28;20033;-79
2022/04/06 01:46:05;;;;;;;2.80;1.20;;;9.90;72.70;;;;;;20806008;28;20038;-78
2022/04/06 01:56:05;;;;;;;3.95;1.58;;;9.90;72.60;;;;;;20790531;28;20385;-78
2022/04/06 02:06:06;;;;;;;3.88;1.42;;;9.90;72.70;;;;;;20821620;28;20037;-78
2022/04/06 02:16:07;;;;;;;6.22;1.52;;;9.90;72.90;;;;;;20821065;28;20090;-78
2022/04/06 02:26:07;;;;;;;2.55;1.60;;;9.90;72.90;;;;;;21040695;23;20046;-86
2022/04/06 02:36:08;;;;;;;4.00;1.20;;;9.90;73.00;;;;;;20662930;28;20123;-86
2022/04/06 02:46:09;;;;;;;5.88;2.40;;;9.90;73.00;;;;;;20680715;28;20469;-85
2022/04/06 02:56:09;;;;;;;4.78;1.60;;;9.90;73.10;;;;;;20646200;28;20030;-86
2022/04/06 03:06:10;;;;;;;3.10;1.30;;;9.90;73.30;;;;;;20645759;28;20126;-85
2022/04/06 03:16:10;;;;;;;2.00;1.50;;;9.90;73.20;;;;;;20660570;28;20034;-85
2022/04/06 03:26:11;;;;;;;1.85;1.23;;;9.90;73.00;;;;;;20677582;28;20045;-85
2022/04/06 03:36:12;;;;;;;3.87;1.63;;;9.90;72.90;;;;;;20675877;28;20492;-85
2022/04/06 03:46:14;;;;;;;2.70;1.00;;;10.00;72.70;;;;;;20642611;28;20277;-86
2022/04/06 03:56:14;;;;;;;1.85;0.90;;;10.00;72.50;;;;;;20656712;28;20100;-85
2022/04/06 04:06:15;;;;;;;2.92;1.63;;;9.90;72.40;;;;;;20657395;28;20030;-85
2022/04/06 04:16:16;;;;;;;4.85;1.60;;;10.00;72.30;;;;;;20656461;28;20392;-85
2022/04/06 04:26:16;;;;;;;1.92;1.30;;;10.00;72.80;;;;;;20671904;28;20639;-86
2022/04/06 04:36:17;;;;;;;2.03;1.35;;;9.90;72.10;;;;;;20671045;28;20481;-85
2022/04/06 04:46:18;;;;;;;5.93;1.60;;;10.00;72.10;;;;;;20654563;28;20396;-85
2022/04/06 04:56:19;;;;;;;2.45;1.30;;;10.00;72.10;;;;;;20652007;28;20047;-86
2022/04/06 05:06:19;;;;;;;5.32;2.05;;;10.00;72.00;;;;;;20667706;28;20033;-85
2022/04/06 05:16:20;;;;;;;6.40;2.45;;;10.00;72.00;;;;;;20651815;28;20076;-85
2022/04/06 05:26:20;;;;;;;5.80;1.95;;;10.00;71.90;;;;;;20668281;28;20039;-85
2022/04/06 05:36:23;;;;;;;4.68;2.80;;;10.00;71.90;;;;;;20649647;28;20457;-84
2022/04/06 05:46:24;;;;;;;9.20;3.08;;;10.00;71.90;;;;;;20667048;28;20030;-84
2022/04/06 05:56:25;;;;;;;4.57;3.10;;;10.00;71.90;;;;;;20666842;28;20400;-84
2022/04/06 06:06:25;;;;;;;3.90;2.38;;;10.00;71.90;;;;;;20666572;28;20030;-85
2022/04/06 06:16:26;;;;;;;6.30;3.38;;;10.00;71.90;;;;;;20648748;28;20065;-86
2022/04/06 06:26:27;;;;;;;8.77;4.00;;;10.00;71.90;;;;;;20664491;28;20049;-82
2022/04/06 06:36:27;;;;;;;5.63;3.58;;;10.00;72.10;;;;;;20645466;28;20065;-79
2022/04/06 06:46:29;;;;;;;8.40;4.30;;;10.00;72.30;;;;;;20664234;28;20750;-77
2022/04/06 06:56:30;;;;;;;10.10;5.15;;;10.10;72.30;;;;;;20641195;28;20030;-74
2022/04/06 07:06:31;;;;;;;9.98;5.25;;;10.00;72.80;;;;;;20661468;28;20042;-75
2022/04/06 07:16:31;;;;;;;11.82;5.40;;;10.10;73.30;;;;;;20636930;28;20038;-79
2022/04/06 07:26:32;;;;;;;11.35;5.72;;;10.10;73.60;;;;;;20654536;28;20066;-78
2022/04/06 07:36:35;;;;;;;8.60;5.22;;;10.10;73.70;;;;;;20652257;28;20847;-76
2022/04/06 07:46:35;;;;;;;12.45;5.28;;;10.10;73.90;;;;;;20636628;28;20392;-76
2022/04/06 07:56:37;;;;;;;9.95;4.85;;;10.10;74.00;;;;;;20643036;28;20043;-80
2022/04/06 08:06:37;;;;;;;6.90;4.43;;;10.10;74.00;;;;;;20598972;28;20039;-79
2022/04/06 08:16:38;;;;;;;8.57;5.53;;;10.10;74.10;;;;;;20595892;28;20054;-78
2022/04/06 08:26:39;;;;;;;9.17;4.37;;;10.10;74.10;;;;;;20631035;28;20061;-81
2022/04/06 08:36:40;;;;;;;8.88;4.68;;;10.20;74.10;;;;;;20664032;28;20312;-81
2022/04/06 08:46:40;;;;;;;8.77;5.90;;;10.10;74.10;;;;;;20641848;28;20035;-82
2022/04/06 08:56:41;;;;;;;8.88;5.45;;;10.10;74.10;;;;;;20653261;28;20042;-73
2022/04/06 09:06:42;;;;;;;9.57;4.50;;;10.20;74.10;;;;;;20644964;28;20041;-76
2022/04/06 09:16:43;;;;;;;8.85;4.40;;;10.20;74.10;;;;;;20645763;28;20045;-85
2022/04/06 09:26:46;;;;;;;7.40;4.43;;;10.20;74.10;;;;;;20664697;28;20038;-84
2022/04/06 09:36:47;;;;;;;8.63;4.10;;;10.20;73.90;;;;;;20707020;28;20406;-75
2022/04/06 09:57:07;;;;;;;6.28;3.60;;;10.30;73.80;;;;;;20731468;28;20034;-79
2022/04/06 10:07:07;;;;;;;4.68;3.13;;;10.30;73.60;;;;;;20694089;28;20122;-81
2022/04/06 10:17:08;;;;;;;6.50;3.22;;;10.30;73.40;;;;;;20709681;28;20419;-75
2022/04/06 10:27:28;;;;;;;6.70;2.38;;;10.30;73.30;;;;;;20737566;28;20038;-80
2022/04/06 10:37:29;;;;;;;4.05;2.20;;;10.30;73.20;;;;;;20721534;28;20125;-77
2022/04/06 10:47:31;;;;;;;5.78;2.33;;;10.30;73.10;;;;;;20704763;28;20492;-77
2022/04/06 10:57:59;;;;;;;5.45;2.42;;;10.30;72.90;;;;;;20739230;28;20034;-80
2022/04/06 11:18:44;;;;;;;8.02;2.97;;;10.30;72.80;;;;;;20738233;28;20109;-74
2022/04/06 11:28:54;;;;;;;5.28;2.85;;;10.30;72.70;;;;;;20704753;28;20069;-77
2022/04/06 11:38:54;;;;;;;5.15;2.53;;;10.30;72.60;;;;;;20585425;28;20054;-78
2022/04/06 11:48:55;;;;;;;5.57;2.55;;;10.40;72.60;;;;;;20648835;28;20077;-75
2022/04/06 11:58:57;;;;;;;6.05;2.35;;;10.40;72.50;;;;;;20649226;28;20042;-77
2022/04/06 12:08:57;;;;;;;9.50;2.10;;;10.50;72.60;;;;;;20662270;28;20121;-85
2022/04/06 12:18:58;;;;;;;2.85;1.63;;;10.50;72.50;;;;;;20651687;28;20038;-81
2022/04/06 12:29:00;;;;;;;3.83;2.15;;;10.40;72.40;;;;;;20650820;28;20658;-85
2022/04/06 12:39:02;;;;;;;4.22;1.70;;;10.50;72.50;;;;;;20651459;28;20460;-74
2022/04/06 12:49:19;;;;;;;2.95;1.75;;;10.50;72.30;;;;;;20652113;28;20046;-76
2022/04/06 12:59:20;;;;;;;2.22;1.70;;;10.40;72.00;;;;;;20651706;28;20210;-79
2022/04/06 13:09:20;;;;;;;4.82;1.88;;;10.50;71.90;;;;;;20649367;28;20141;-78
2022/04/06 13:19:21;;;;;;;1.90;1.38;;;10.50;71.80;;;;;;20632836;28;20046;-79
2022/04/06 13:29:23;;;;;;;2.72;1.30;;;10.50;71.60;;;;;;20648542;28;20054;-80
2022/04/06 13:39:24;;;;;;;2.65;1.50;;;10.50;71.50;;;;;;20633355;28;20105;-78
2022/04/06 13:49:24;;;;;;;3.55;1.40;;;10.50;71.40;;;;;;20648682;28;20042;-79
2022/04/06 13:59:25;;;;;;;2.83;1.38;;;10.50;71.30;;;;;;20644600;28;20037;-79
2022/04/06 14:09:27;;;;;;;3.58;1.50;;;10.50;71.20;;;;;;20647641;28;20404;-81
2022/04/06 14:19:28;;;;;;;2.30;1.35;;;10.50;71.10;;;;;;20648002;28;20429;-83
2022/04/06 14:29:28;;;;;;;1.88;1.27;;;10.50;71.00;;;;;;20646818;28;20070;-80
2022/04/06 14:39:29;;;;;;;2.42;1.10;;;10.50;71.00;;;;;;20644826;28;20042;-79
2022/04/06 14:49:29;;;;;;;4.78;1.63;;;10.50;70.90;;;;;;20645509;28;20077;-78
2022/04/06 14:59:30;;;;;;;2.00;1.13;;;10.50;70.80;;;;;;20660582;28;20030;-79
2022/04/06 15:09:31;;;;;;;1.73;1.25;;;10.50;70.70;;;;;;20641830;28;20484;-78
2022/04/06 15:19:32;;;;;;;1.75;1.10;;;10.50;70.70;;;;;;20658898;28;20483;-81
2022/04/06 15:29:33;;;;;;;2.20;1.33;;;10.50;70.60;;;;;;20641058;28;20050;-79
2022/04/06 15:39:33;;;;;;;4.28;1.67;;;10.50;70.60;;;;;;20625473;28;20033;-79
2022/04/06 15:49:34;;;;;;;1.83;1.00;;;10.50;70.50;;;;;;20672972;28;20066;-80
2022/04/06 15:59:34;;;;;;;1.40;1.02;;;10.50;70.50;;;;;;20671734;28;20034;-78
2022/04/06 16:09:35;;;;;;;4.20;1.38;;;10.50;70.40;;;;;;20671030;28;20077;-79
2022/04/06 16:19:35;;;;;;;1.40;1.00;;;10.50;70.40;;;;;;20654091;28;20042;-79
2022/04/06 16:29:37;;;;;;;1.30;1.00;;;10.50;70.40;;;;;;20670103;28;20034;-79
2022/04/06 16:39:38;;;;;;;1.80;1.10;;;10.50;70.40;;;;;;20653350;28;20072;-80
2022/04/06 16:59:58;;;;;;;4.18;1.27;;;10.50;70.30;;;;;;20666194;28;20037;-80
2022/04/06 17:09:59;;;;;;;2.15;1.27;;;10.50;70.30;;;;;;20634218;28;20125;-79
2022/04/06 17:20:00;;;;;;;1.60;1.00;;;10.50;70.30;;;;;;20647878;28;20507;-79
2022/04/06 17:30:00;;;;;;;2.45;1.17;;;10.60;70.30;;;;;;20647644;28;20504;-78
2022/04/06 17:40:02;;;;;;;1.80;1.25;;;10.50;70.30;;;;;;20616057;28;20058;-78
2022/04/06 17:50:02;;;;;;;2.17;1.08;;;10.50;70.30;;;;;;20615484;28;20184;-79
2022/04/06 18:00:05;;;;;;;1.33;1.08;;;10.50;70.20;;;;;;20615130;28;20452;-78
2022/04/06 18:10:13;;;;;;;2.83;1.30;;;10.50;70.20;;;;;;20632169;28;20066;-78
2022/04/06 18:20:14;;;;;;;1.33;0.93;;;10.50;70.20;;;;;;20630630;28;20134;-78
2022/04/06 18:30:14;;;;;;;1.58;0.70;;;10.60;70.30;;;;;;20647171;28;20132;-78
2022/04/06 18:40:16;;;;;;;1.75;1.08;;;10.50;70.20;;;;;;20618353;28;20076;-79
2022/04/06 18:50:17;;;;;;;2.13;0.95;;;10.50;70.20;;;;;;20644543;28;20042;-78
2022/04/06 19:00:20;;;;;;;1.17;0.95;;;10.60;70.30;;;;;;20659693;28;20508;-80
2022/04/06 19:10:21;;;;;;;1.05;0.95;;;10.60;70.20;;;;;;20660290;28;20066;-79
2022/04/06 19:20:21;;;;;;;1.08;0.60;;;10.60;70.30;;;;;;20657904;28;20456;-79
2022/04/06 19:30:23;;;;;;;1.08;0.77;;;10.50;70.20;;;;;;20673485;28;20049;-79
2022/04/06 19:40:23;;;;;;;1.95;0.90;;;10.60;70.20;;;;;;20675137;28;20140;-79
2022/04/06 19:50:24;;;;;;;1.27;0.80;;;10.60;70.20;;;;;;20671935;28;20070;-79
2022/04/06 20:00:25;;;;;;;1.20;0.70;;;10.60;70.20;;;;;;20654901;28;20057;-79
2022/04/06 20:10:25;;;;;;;0.95;0.90;;;10.60;70.10;;;;;;20638635;28;20038;-80
2022/04/06 20:20:26;;;;;;;0.85;0.70;;;10.60;70.20;;;;;;20654259;28;20061;-80
2022/04/06 20:30:28;;;;;;;1.37;0.90;;;10.60;70.20;;;;;;20670050;28;20077;-78
2022/04/06 20:40:30;;;;;;;0.93;0.50;;;10.60;70.20;;;;;;20652295;28;20639;-79
2022/04/06 20:50:31;;;;;;;1.02;0.63;;;10.60;70.20;;;;;;20651041;28;20053;-80
2022/04/06 21:00:31;;;;;;;0.95;0.60;;;10.60;70.10;;;;;;20651519;28;20113;-80
2022/04/06 21:10:32;;;;;;;0.45;0.40;;;10.60;70.10;;;;;;20632932;28;20046;-79
2022/04/06 21:20:33;;;;;;;2.13;0.93;;;10.60;70.10;;;;;;20634483;28;20038;-79
2022/04/06 21:30:34;;;;;;;0.68;0.60;;;10.60;70.10;;;;;;20666836;28;20515;-80
2022/04/06 21:40:34;;;;;;;3.38;0.70;;;10.60;70.10;;;;;;20649669;28;20117;-79
2022/04/06 21:50:35;;;;;;;1.33;0.90;;;10.60;70.10;;;;;;20663873;28;20133;-79
2022/04/06 22:00:36;;;;;;;2.10;0.80;;;10.60;70.00;;;;;;20631736;28;20030;-79
2022/04/06 22:10:37;;;;;;;1.88;0.75;;;10.60;70.00;;;;;;20631285;28;20100;-80
2022/04/06 22:20:38;;;;;;;1.05;0.65;;;10.60;70.00;;;;;;20645100;28;20041;-79
2022/04/06 22:30:40;;;;;;;1.95;0.65;;;10.60;70.00;;;;;;20678113;28;20050;-78
2022/04/06 22:40:40;;;;;;;1.23;0.60;;;10.60;70.00;;;;;;20645608;28;20033;-80
2022/04/06 22:50:41;;;;;;;1.38;0.77;;;10.60;70.00;;;;;;20678456;28;20129;-78
2022/04/06 23:00:41;;;;;;;1.05;0.70;;;10.60;70.00;;;;;;20644298;28;20073;-78
2022/04/06 23:10:42;;;;;;;1.37;0.80;;;10.60;70.00;;;;;;20660210;28;20381;-79
2022/04/06 23:20:43;;;;;;;0.70;0.60;;;10.70;70.00;;;;;;20643247;28;20290;-79
2022/04/06 23:30:43;;;;;;;1.50;0.70;;;10.60;70.00;;;;;;20673754;28;20092;-79
2022/04/06 23:40:44;;;;;;;0.90;0.60;;;10.60;70.00;;;;;;20657737;28;20057;-79
2022/04/06 23:50:44;;;;;;;0.50;0.50;;;10.70;70.10;;;;;;20656076;28;20340;-79
